YYZ weather

Lester B. Pearson International Airport
Toronto, Ontario, Canada

Public forecast

Using degrees Celsius for public forecast. Weather courtesy of forecast.io.

Current aviation weather report (METAR) for Lester B. Pearson International Airport

Retrieved 2020/01/19 09:00 UTC (42 minutes ago):

CYYZ 190900Z 26013G18KT 5SM -SN OVC022 M00/M02 A2960 RMK SN2SC6 SLP033

Aviation forecast (TAF) for Lester B. Pearson International Airport

Retrieved 2020/01/19 09:42 UTC (15 seconds ago):

TAF CYYZ 190839Z 1909/2012 24012G22KT P6SM -SHSN OVC030 TEMPO 1909/1910 2SM -SHSN OVC020 FM191000 26013G23KT 6SM -SHSN OVC030 TEMPO 1910/1913 11/2SM -SN OVC020 PROB30 1910/1913 30015G25KT 3/4SM -SHSN BLSN VV006 FM191300 31013G23KT P6SM BKN030 BKN100 TEMPO 1913/1915 3SM -SN OVC020 BECMG 1915/1917 34015G28KT FM200200 35015KT P6SM FEW030 RMK NXT FCST BY 191200Z